• Join FlightAware (Why Join?)
  • Login
  • US Flag 
01:59PM EDT


 

Airport Tracker/Info


-or-


 

Live Flight TrackerFlight Track Log ✈ SWA1969 ✈ 26-Apr-2013 ✈ KDAL - KMCI

Flight Track Log - Related Links

Times and Time Zones

All times are in EDT time to prevent confusion due to time zone crossing. See the SWA1969 flight status page for this flight to view local times or setup timezone preferences in your user account.

Time Position Orientation Groundspeed Altitude Reporting Facility
EDT Latitude Longitude Course Direction KTS MPH feet Rate Location/Type
09:05AM 32.8333 -96.8167 128° Southeast 162 186 2,400  Level Dallas / Fort Worth TRACON
09:06AM 32.8000 -96.7667 128° Southeast 238 274 4,500 2,580 Climbing Dallas / Fort Worth TRACON
09:07AM 32.8500 -96.7167 40° Northeast 288 331 7,400 2,520 Climbing Dallas / Fort Worth TRACON
09:09AM 33.0383 -96.7767 345° North 344 396 12,900 2,580 Climbing Fort Worth Center
09:10AM 33.1306 -96.8503 326° Northwest 360 414 16,000 2,760 Climbing Fort Worth Center
09:11AM 33.2144 -96.9194 325° Northwest 365 420 18,500 2,460 Climbing Fort Worth Center
09:12AM 33.3044 -96.9908 326° Northwest 372 428 21,000 2,220 Climbing Fort Worth Center
09:13AM 33.3839 -97.0553 326° Northwest 381 438 23,000 1,320 Climbing Fort Worth Center
09:14AM 33.4947 -97.1072 339° North 376 433 23,700 1,020 Climbing Fort Worth Center
09:15AM 33.6158 -97.0917 North 400 460 25,100 1,500 Climbing Fort Worth Center
09:16AM 33.7389 -97.0714 North 433 498 26,800 1,680 Climbing Fort Worth Center
09:17AM 33.8597 -97.0158 21° North 453 521 28,500 1,440 Climbing Fort Worth Center
09:18AM 33.9847 -96.9575 21° North 463 533 29,700 1,260 Climbing Fort Worth Center
09:19AM 34.0950 -96.9019 23° Northeast 468 539 31,100 1,320 Climbing Fort Worth Center
09:20AM 34.2119 -96.9036 359° North 443 510 32,400 1,200 Climbing Fort Worth Center
09:21AM 34.3331 -96.9281 351° North 434 499 33,500 1,080 Climbing Fort Worth Center
09:22AM 34.4564 -96.9500 352° North 439 505 34,600 1,140 Climbing Fort Worth Center
09:23AM 34.5794 -96.9747 351° North 447 514 35,800 660 Climbing Fort Worth Center
09:24AM 34.6983 -96.9942 352° North 447 514 36,000 60 Climbing Fort Worth Center
09:25AM 34.8217 -97.0189 351° North 447 514 36,000  Level Fort Worth Center
09:26AM 34.9406 -97.0411 351° North 442 509 36,000  Level Fort Worth Center
09:28AM 35.2200 -97.0906 352° North 433 498 36,000  Level Kansas City Center
09:29AM 35.3383 -97.1128 351° North 434 499 36,000  Level Kansas City Center
09:30AM 35.4556 -97.1342 352° North 434 499 36,000  Level Kansas City Center
09:32AM 35.5731 -97.1578 351° North 435 501 36,000  Level Kansas City Center
09:33AM 35.6928 -97.1803 351° North 437 503 36,000  Level Kansas City Center
09:34AM 35.8353 -97.2083 351° North 436 502 36,000  Level Kansas City Center
09:35AM 35.9528 -97.2308 351° North 431 496 36,000  Level Kansas City Center
09:36AM 36.0733 -97.2533 351° North 436 502 36,000  Level Kansas City Center
09:37AM 36.1919 -97.2769 351° North 435 501 36,000  Level Kansas City Center
09:38AM 36.3131 -97.3006 351° North 437 503 36,000  Level Kansas City Center
09:39AM 36.4350 -97.3242 351° North 442 509 36,000  Level Kansas City Center
09:40AM 36.5586 -97.3486 351° North 446 513 36,000  Level Kansas City Center
09:41AM 36.6825 -97.3719 351° North 449 517 36,000  Level Kansas City Center
09:42AM 36.8292 -97.4031 350° North 446 513 36,000  Level Kansas City Center
09:43AM 36.9556 -97.4106 357° North 448 516 36,000  Level Kansas City Center
09:44AM 37.0836 -97.3869 North 461 531 36,000  Level Kansas City Center
09:45AM 37.2117 -97.3625 North 465 535 36,000  Level Kansas City Center
09:46AM 37.3356 -97.3050 20° North 473 544 36,000  Level Kansas City Center
09:47AM 37.4597 -97.2428 22° Northeast 482 555 36,000  Level Kansas City Center
09:48AM 37.5828 -97.1789 22° Northeast 483 556 36,000 -360 Level Kansas City Center
09:49AM 37.7067 -97.1167 22° Northeast 483 556 35,300 -960 Descending Kansas City Center
09:50AM 37.8553 -97.0439 21° North 482 555 34,100 -2,040 Descending Kansas City Center
09:51AM 37.9778 -96.9844 21° North 476 548 31,200 -2,100 Descending Kansas City Center
09:52AM 38.1036 -96.9253 20° North 484 557 29,900 -1,080 Descending Kansas City Center
09:53AM 38.2197 -96.8317 32° Northeast 498 573 29,000 -960 Descending Kansas City Center
09:54AM 38.3044 -96.6989 51° Northeast 490 564 28,000 -1,500 Descending Kansas City Center
09:55AM 38.3956 -96.5753 47° Northeast 478 550 26,000 -1,800 Descending Kansas City Center
09:56AM 38.4806 -96.4186 55° Northeast 464 534 24,300 -1,320 Descending Kansas City Center
09:57AM 38.5278 -96.2758 67° East 457 526 23,300 -660 Descending Kansas City Center
09:58AM 38.5822 -96.1100 67° East 453 521 23,000 -180 Descending Kansas City Center
09:59AM 38.6278 -95.9697 67° East 449 517 23,000 -480 Level Kansas City Center
10:00AM 38.6803 -95.8094 67° East 440 506 22,000 -1,140 Descending Kansas City Center
10:01AM 38.7236 -95.6767 67° East 427 491 20,700 -1,500 Descending Kansas City Center
10:02AM 38.7653 -95.5464 68° East 417 480 19,000 -1,860 Descending Kansas City Center
10:03AM 38.8183 -95.4031 65° Northeast 400 460 17,000 -1,860 Descending Kansas City Center
10:04AM 38.8878 -95.3047 48° Northeast 390 449 15,200 -1,860 Descending Kansas City Center
10:05AM 38.9661 -95.1942 48° Northeast 377 434 13,100 -1,620 Descending Kansas City Center
10:06AM 39.0300 -95.1036 48° Northeast 364 419 12,000 -540 Descending Kansas City Center
10:07AM 39.0972 -95.0058 48° Northeast 329 379 12,000 -60 Level Kansas City Center
10:09AM 39.1508 -94.9297 48° Northeast 304 350 11,900 -360 Descending Kansas City Center
10:10AM 39.2133 -94.8650 39° Northeast 263 303 11,300 -840 Descending Kansas City Center
10:11AM 39.2750 -94.8397 18° North 244 281 10,200 -1,320 Descending Kansas City Center
10:12AM 39.3483 -94.8128 16° North 247 284 8,600 -1,440 Descending Kansas City Center
10:13AM 39.4083 -94.7931 14° North 234 269 7,300 -1,440 Descending Kansas City Center
10:14AM 39.4283 -94.7322 67° East 204 235 5,700 -1,620 Descending Kansas City Center
10:15AM 39.4019 -94.6994 136° Southeast 152 175 4,000 -1,680 Descending Kansas City Center
10:16AM 39.3681 -94.7081 191° South 129 148 2,300 -1,440 Descending Kansas City Center
10:17AM 39.3294 -94.7189 192° South 128 147 1,100 -720 Descending Kansas City Center
10:18AM 39.2908 -94.7306 193° South 130 150 900 -240 Descending Kansas City Center